sensor_id;sensor_type;location;lat;lon;timestamp;pressure;altitude;pressure_sealevel;temperature;humidity
30021;BME280;16861;52.294;7.760;2023-03-20T00:03:45;100023.00;;;11.57;66.04
30021;BME280;16861;52.294;7.760;2023-03-20T00:08:46;100022.69;;;11.63;66.15
30021;BME280;16861;52.294;7.760;2023-03-20T00:11:29;100022.69;;;11.63;66.71
30021;BME280;16861;52.294;7.760;2023-03-20T00:13:58;100025.81;;;11.70;66.39
30021;BME280;16861;52.294;7.760;2023-03-20T00:16:30;100031.84;;;11.72;66.46
30021;BME280;16861;52.294;7.760;2023-03-20T00:19:00;100027.34;;;11.74;66.26
30021;BME280;16861;52.294;7.760;2023-03-20T00:21:27;100035.91;;;11.78;66.28
30021;BME280;16861;52.294;7.760;2023-03-20T00:23:54;100041.09;;;11.79;66.27
30021;BME280;16861;52.294;7.760;2023-03-20T00:26:33;100044.66;;;11.78;67.06
30021;BME280;16861;52.294;7.760;2023-03-20T00:29:01;100047.91;;;11.83;66.25
30021;BME280;16861;52.294;7.760;2023-03-20T00:31:33;100040.91;;;11.82;66.20
30021;BME280;16861;52.294;7.760;2023-03-20T00:34:06;100035.75;;;11.81;66.34
30021;BME280;16861;52.294;7.760;2023-03-20T00:36:35;100037.50;;;11.80;66.04
30021;BME280;16861;52.294;7.760;2023-03-20T00:39:02;100028.94;;;11.77;66.06
30021;BME280;16861;52.294;7.760;2023-03-20T00:41:33;100029.19;;;11.72;66.44
30021;BME280;16861;52.294;7.760;2023-03-20T00:44:05;100028.53;;;11.68;66.49
30021;BME280;16861;52.294;7.760;2023-03-20T00:46:38;100018.16;;;11.65;66.26
30021;BME280;16861;52.294;7.760;2023-03-20T00:49:05;100022.69;;;11.63;66.50
30021;BME280;16861;52.294;7.760;2023-03-20T00:51:31;100019.34;;;11.59;66.47
30021;BME280;16861;52.294;7.760;2023-03-20T00:53:58;100015.97;;;11.57;66.52
30021;BME280;16861;52.294;7.760;2023-03-20T00:56:31;100009.16;;;11.53;67.23
30021;BME280;16861;52.294;7.760;2023-03-20T00:59:02;100011.03;;;11.51;66.69
30021;BME280;16861;52.294;7.760;2023-03-20T01:01:30;100012.75;;;11.52;66.41
30021;BME280;16861;52.294;7.760;2023-03-20T01:03:58;100001.41;;;11.50;66.47
30021;BME280;16861;52.294;7.760;2023-03-20T01:06:25;99998.94;;;11.47;66.40
30021;BME280;16861;52.294;7.760;2023-03-20T01:08:51;100002.53;;;11.46;66.45
30021;BME280;16861;52.294;7.760;2023-03-20T01:11:21;100006.19;;;11.43;66.84
30021;BME280;16861;52.294;7.760;2023-03-20T01:13:48;100019.28;;;11.45;66.67
30021;BME280;16861;52.294;7.760;2023-03-20T01:16:21;100026.34;;;11.44;67.16
30021;BME280;16861;52.294;7.760;2023-03-20T01:18:49;100038.50;;;11.47;67.07
30021;BME280;16861;52.294;7.760;2023-03-20T01:21:16;100035.69;;;11.50;66.94
30021;BME280;16861;52.294;7.760;2023-03-20T01:23:43;100049.75;;;11.51;67.10
30021;BME280;16861;52.294;7.760;2023-03-20T01:26:49;100052.44;;;11.49;67.83
30021;BME280;16861;52.294;7.760;2023-03-20T01:29:20;100051.16;;;11.56;67.31
30021;BME280;16861;52.294;7.760;2023-03-20T01:31:47;100057.19;;;11.58;67.23
30021;BME280;16861;52.294;7.760;2023-03-20T01:34:14;100057.13;;;11.60;67.08
30021;BME280;16861;52.294;7.760;2023-03-20T01:36:50;100051.84;;;11.60;67.49
30021;BME280;16861;52.294;7.760;2023-03-20T01:39:19;100054.41;;;11.62;67.24
30021;BME280;16861;52.294;7.760;2023-03-20T01:41:47;100058.66;;;11.64;67.21
30021;BME280;16861;52.294;7.760;2023-03-20T01:44:19;100047.16;;;11.65;67.08
30021;BME280;16861;52.294;7.760;2023-03-20T01:46:48;100050.53;;;11.67;67.07
30021;BME280;16861;52.294;7.760;2023-03-20T01:51:48;100054.03;;;11.68;66.89
30021;BME280;16861;52.294;7.760;2023-03-20T01:54:35;100052.50;;;11.64;67.46
30021;BME280;16861;52.294;7.760;2023-03-20T01:57:14;100058.44;;;11.67;67.25
30021;BME280;16861;52.294;7.760;2023-03-20T02:00:01;100054.31;;;11.63;67.66
30021;BME280;16861;52.294;7.760;2023-03-20T02:02:30;100040.94;;;11.66;66.95
30021;BME280;16861;52.294;7.760;2023-03-20T02:05:04;100047.25;;;11.64;67.26
30021;BME280;16861;52.294;7.760;2023-03-20T02:07:33;100045.53;;;11.63;67.08
30021;BME280;16861;52.294;7.760;2023-03-20T02:10:01;100041.31;;;11.60;66.85
30021;BME280;16861;52.294;7.760;2023-03-20T02:12:29;100047.69;;;11.56;67.04
30021;BME280;16861;52.294;7.760;2023-03-20T02:14:56;100042.66;;;11.51;66.96
30021;BME280;16861;52.294;7.760;2023-03-20T02:17:23;100042.00;;;11.47;67.06
30021;BME280;16861;52.294;7.760;2023-03-20T02:28:44;100048.09;;;11.32;68.15
30021;BME280;16861;52.294;7.760;2023-03-20T02:40:07;100047.94;;;11.19;68.72
30021;BME280;16861;52.294;7.760;2023-03-20T02:42:44;100038.34;;;11.18;68.78
30021;BME280;16861;52.294;7.760;2023-03-20T02:45:22;100027.91;;;11.16;68.64
30021;BME280;16861;52.294;7.760;2023-03-20T02:48:15;100035.00;;;11.14;68.93
30021;BME280;16861;52.294;7.760;2023-03-20T03:01:29;100039.53;;;11.12;69.06
30021;BME280;16861;52.294;7.760;2023-03-20T03:04:25;100033.47;;;11.10;69.45
30021;BME280;16861;52.294;7.760;2023-03-20T03:06:51;100039.53;;;11.12;68.76
30021;BME280;16861;52.294;7.760;2023-03-20T03:09:28;100038.75;;;11.10;69.57
30021;BME280;16861;52.294;7.760;2023-03-20T03:12:02;100034.25;;;11.12;69.29
30021;BME280;16861;52.294;7.760;2023-03-20T03:14:40;100036.03;;;11.12;69.55
30021;BME280;16861;52.294;7.760;2023-03-20T03:17:08;100028.91;;;11.14;68.90
30021;BME280;16861;52.294;7.760;2023-03-20T03:19:37;100028.91;;;11.14;69.11
30021;BME280;16861;52.294;7.760;2023-03-20T03:22:07;100024.47;;;11.14;68.91
30021;BME280;16861;52.294;7.760;2023-03-20T03:24:38;100021.09;;;11.12;69.45
30021;BME280;16861;52.294;7.760;2023-03-20T03:27:18;100004.63;;;11.08;69.57
30021;BME280;16861;52.294;7.760;2023-03-20T03:29:51;99998.31;;;11.11;69.12
30021;BME280;16861;52.294;7.760;2023-03-20T03:32:27;100000.25;;;11.07;69.41
30021;BME280;16861;52.294;7.760;2023-03-20T03:34:55;100001.03;;;11.10;68.93
30021;BME280;16861;52.294;7.760;2023-03-20T03:37:35;100006.38;;;11.08;69.38
30021;BME280;16861;52.294;7.760;2023-03-20T03:40:43;100004.63;;;11.08;69.61
30021;BME280;16861;52.294;7.760;2023-03-20T03:43:19;99999.16;;;11.12;69.19
30021;BME280;16861;52.294;7.760;2023-03-20T03:45:54;100001.78;;;11.12;69.31
30021;BME280;16861;52.294;7.760;2023-03-20T03:48:27;100005.28;;;11.12;69.06
30021;BME280;16861;52.294;7.760;2023-03-20T03:50:59;100001.69;;;11.13;68.66
30021;BME280;16861;52.294;7.760;2023-03-20T03:53:33;100011.38;;;11.13;68.83
30021;BME280;16861;52.294;7.760;2023-03-20T03:56:05;100013.09;;;11.14;68.48
30021;BME280;16861;52.294;7.760;2023-03-20T03:58:40;100014.00;;;11.13;68.60
30021;BME280;16861;52.294;7.760;2023-03-20T04:01:09;100008.66;;;11.14;68.23
30021;BME280;16861;52.294;7.760;2023-03-20T04:04:06;100013.09;;;11.14;68.14
30021;BME280;16861;52.294;7.760;2023-03-20T04:06:31;100009.38;;;11.18;67.69
30021;BME280;16861;52.294;7.760;2023-03-20T04:08:58;100005.88;;;11.17;67.55
30021;BME280;16861;52.294;7.760;2023-03-20T04:11:25;100004.09;;;11.18;67.60
30021;BME280;16861;52.294;7.760;2023-03-20T04:13:54;99999.66;;;11.18;67.37
30021;BME280;16861;52.294;7.760;2023-03-20T04:16:22;100007.56;;;11.18;67.44
30021;BME280;16861;52.294;7.760;2023-03-20T04:18:50;100008.44;;;11.19;67.29
30021;BME280;16861;52.294;7.760;2023-03-20T04:21:16;99998.84;;;11.18;67.16
30021;BME280;16861;52.294;7.760;2023-03-20T04:23:43;99997.88;;;11.19;67.11
30021;BME280;16861;52.294;7.760;2023-03-20T04:26:10;99988.28;;;11.18;66.98
30021;BME280;16861;52.294;7.760;2023-03-20T04:28:37;99976.03;;;11.17;66.98
30021;BME280;16861;52.294;7.760;2023-03-20T04:31:03;99990.16;;;11.16;66.94
30021;BME280;16861;52.294;7.760;2023-03-20T04:33:29;99992.03;;;11.14;66.78
30021;BME280;16861;52.294;7.760;2023-03-20T04:35:56;99988.53;;;11.13;66.78
30021;BME280;16861;52.294;7.760;2023-03-20T04:38:22;99985.97;;;11.12;66.78
30021;BME280;16861;52.294;7.760;2023-03-20T04:40:49;99990.31;;;11.13;66.84
30021;BME280;16861;52.294;7.760;2023-03-20T04:43:16;99990.50;;;11.10;66.69
30021;BME280;16861;52.294;7.760;2023-03-20T04:45:42;99990.50;;;11.10;66.63
30021;BME280;16861;52.294;7.760;2023-03-20T04:48:09;100000.19;;;11.09;66.71
30021;BME280;16861;52.294;7.760;2023-03-20T04:50:36;99995.00;;;11.07;66.63
30021;BME280;16861;52.294;7.760;2023-03-20T04:53:02;99995.06;;;11.06;66.57
30021;BME280;16861;52.294;7.760;2023-03-20T04:55:29;100005.72;;;11.04;66.43
30021;BME280;16861;52.294;7.760;2023-03-20T04:57:55;99990.06;;;11.01;66.47
30021;BME280;16861;52.294;7.760;2023-03-20T05:00:21;100000.75;;;10.98;66.47
30021;BME280;16861;52.294;7.760;2023-03-20T05:02:48;100000.84;;;10.97;66.49
30021;BME280;16861;52.294;7.760;2023-03-20T05:05:14;99995.78;;;10.93;66.56
30021;BME280;16861;52.294;7.760;2023-03-20T05:07:41;99990.75;;;10.89;66.67
30021;BME280;16861;52.294;7.760;2023-03-20T05:10:07;99990.91;;;10.86;66.61
30021;BME280;16861;52.294;7.760;2023-03-20T05:12:34;100003.38;;;10.82;66.60
30021;BME280;16861;52.294;7.760;2023-03-20T05:15:01;99985.19;;;10.77;66.82
30021;BME280;16861;52.294;7.760;2023-03-20T05:17:27;99985.38;;;10.74;66.82
30021;BME280;16861;52.294;7.760;2023-03-20T05:19:53;99987.22;;;10.72;66.92
30021;BME280;16861;52.294;7.760;2023-03-20T05:22:20;99983.00;;;10.69;66.98
30021;BME280;16861;52.294;7.760;2023-03-20T05:24:46;99980.50;;;10.66;66.93
30021;BME280;16861;52.294;7.760;2023-03-20T05:27:12;99977.19;;;10.63;67.15
30021;BME280;16861;52.294;7.760;2023-03-20T05:29:39;99977.34;;;10.60;67.26
30021;BME280;16861;52.294;7.760;2023-03-20T05:32:05;99972.28;;;10.57;67.17
30021;BME280;16861;52.294;7.760;2023-03-20T05:34:31;99980.34;;;10.53;67.23
30021;BME280;16861;52.294;7.760;2023-03-20T05:36:58;99984.81;;;10.51;67.26
30021;BME280;16861;52.294;7.760;2023-03-20T05:39:24;99979.72;;;10.48;67.28
30021;BME280;16861;52.294;7.760;2023-03-20T05:41:51;99986.00;;;10.46;67.46
30021;BME280;16861;52.294;7.760;2023-03-20T05:44:17;99983.56;;;10.41;67.52
30021;BME280;16861;52.294;7.760;2023-03-20T05:46:43;99992.41;;;10.40;67.52
30021;BME280;16861;52.294;7.760;2023-03-20T05:49:10;99993.34;;;10.39;67.67
30021;BME280;16861;52.294;7.760;2023-03-20T05:51:36;99995.19;;;10.37;67.63
30021;BME280;16861;52.294;7.760;2023-03-20T05:54:03;99996.13;;;10.36;67.77
30021;BME280;16861;52.294;7.760;2023-03-20T05:56:30;99993.50;;;10.36;68.10
30021;BME280;16861;52.294;7.760;2023-03-20T05:58:56;99992.63;;;10.35;67.90
30021;BME280;16861;52.294;7.760;2023-03-20T06:01:22;99994.44;;;10.35;68.30
30021;BME280;16861;52.294;7.760;2023-03-20T06:03:49;99999.69;;;10.35;68.17
30021;BME280;16861;52.294;7.760;2023-03-20T06:06:16;99994.44;;;10.35;68.42
30021;BME280;16861;52.294;7.760;2023-03-20T06:08:43;99995.34;;;10.34;68.12
30021;BME280;16861;52.294;7.760;2023-03-20T06:11:10;100004.19;;;10.33;68.19
30021;BME280;16861;52.294;7.760;2023-03-20T06:13:37;99996.34;;;10.31;68.07
30021;BME280;16861;52.294;7.760;2023-03-20T06:16:03;99999.84;;;10.32;68.02
30021;BME280;16861;52.294;7.760;2023-03-20T06:18:30;100001.53;;;10.33;68.33
30021;BME280;16861;52.294;7.760;2023-03-20T06:20:56;99997.97;;;10.34;68.24
30021;BME280;16861;52.294;7.760;2023-03-20T06:23:23;100012.00;;;10.34;68.24
30021;BME280;16861;52.294;7.760;2023-03-20T06:25:50;100008.44;;;10.35;68.29
30021;BME280;16861;52.294;7.760;2023-03-20T06:28:16;100018.94;;;10.35;68.32
30021;BME280;16861;52.294;7.760;2023-03-20T06:30:43;100021.59;;;10.35;68.25
30021;BME280;16861;52.294;7.760;2023-03-20T06:33:09;100023.28;;;10.36;68.43
30021;BME280;16861;52.294;7.760;2023-03-20T06:35:36;100026.78;;;10.37;68.13
30021;BME280;16861;52.294;7.760;2023-03-20T06:38:02;100023.28;;;10.36;68.32
30021;BME280;16861;52.294;7.760;2023-03-20T06:40:29;100030.25;;;10.37;68.31
30021;BME280;16861;52.294;7.760;2023-03-20T06:42:55;100035.53;;;10.37;68.23
30021;BME280;16861;52.294;7.760;2023-03-20T06:45:24;100036.53;;;10.35;68.16
30021;BME280;16861;52.294;7.760;2023-03-20T06:47:51;100033.81;;;10.36;68.16
30021;BME280;16861;52.294;7.760;2023-03-20T06:50:17;100038.22;;;10.36;68.06
30021;BME280;16861;52.294;7.760;2023-03-20T06:52:44;100040.88;;;10.36;68.13
30021;BME280;16861;52.294;7.760;2023-03-20T06:55:10;100032.03;;;10.37;68.40
30021;BME280;16861;52.294;7.760;2023-03-20T06:57:37;100038.16;;;10.37;68.23
30021;BME280;16861;52.294;7.760;2023-03-20T07:00:04;100044.19;;;10.39;68.38
30021;BME280;16861;52.294;7.760;2023-03-20T07:02:31;100048.31;;;10.45;68.21
30021;BME280;16861;52.294;7.760;2023-03-20T07:04:58;100049.94;;;10.48;68.26
30021;BME280;16861;52.294;7.760;2023-03-20T07:07:24;100052.41;;;10.51;68.29
30021;BME280;16861;52.294;7.760;2023-03-20T07:09:51;100052.22;;;10.54;67.93
30021;BME280;16861;52.294;7.760;2023-03-20T07:12:17;100053.09;;;10.54;67.53
30021;BME280;16861;52.294;7.760;2023-03-20T07:14:48;100055.66;;;10.56;67.44
30021;BME280;16861;52.294;7.760;2023-03-20T07:17:15;100053.78;;;10.58;67.38
30021;BME280;16861;52.294;7.760;2023-03-20T07:19:41;100063.41;;;10.59;66.96
30021;BME280;16861;52.294;7.760;2023-03-20T07:22:16;100065.16;;;10.59;67.11
30021;BME280;16861;52.294;7.760;2023-03-20T07:24:43;100063.31;;;10.61;66.70
30021;BME280;16861;52.294;7.760;2023-03-20T07:27:12;100061.44;;;10.63;66.78
30021;BME280;16861;52.294;7.760;2023-03-20T07:29:38;100069.25;;;10.64;66.41
30021;BME280;16861;52.294;7.760;2023-03-20T07:32:05;100064.88;;;10.65;66.50
30021;BME280;16861;52.294;7.760;2023-03-20T07:34:31;100067.38;;;10.66;66.35
30021;BME280;16861;52.294;7.760;2023-03-20T07:36:58;100067.38;;;10.66;66.08
30021;BME280;16861;52.294;7.760;2023-03-20T07:39:24;100065.47;;;10.70;66.22
30021;BME280;16861;52.294;7.760;2023-03-20T07:41:51;100070.66;;;10.72;65.82
30021;BME280;16861;52.294;7.760;2023-03-20T07:44:17;100074.97;;;10.73;65.77
30021;BME280;16861;52.294;7.760;2023-03-20T07:46:45;100067.00;;;10.74;65.74
30021;BME280;16861;52.294;7.760;2023-03-20T07:49:15;100070.41;;;10.76;65.45
30021;BME280;16861;52.294;7.760;2023-03-20T07:51:47;100075.59;;;10.78;65.12
30021;BME280;16861;52.294;7.760;2023-03-20T07:54:14;100073.81;;;10.78;64.86
30021;BME280;16861;52.294;7.760;2023-03-20T07:56:41;100085.25;;;10.77;64.60
30021;BME280;16861;52.294;7.760;2023-03-20T07:59:11;100066.94;;;10.76;64.49
30021;BME280;16861;52.294;7.760;2023-03-20T08:01:41;100065.13;;;10.76;64.27
30021;BME280;16861;52.294;7.760;2023-03-20T08:08:01;100074.41;;;10.84;64.48
30021;BME280;16861;52.294;7.760;2023-03-20T08:10:27;100067.34;;;10.84;64.53
30021;BME280;16861;52.294;7.760;2023-03-20T08:12:54;100061.16;;;10.85;64.52
30021;BME280;16861;52.294;7.760;2023-03-20T08:15:21;100065.41;;;10.88;64.61
30021;BME280;16861;52.294;7.760;2023-03-20T08:17:48;100063.53;;;10.90;64.07
30021;BME280;16861;52.294;7.760;2023-03-20T08:20:15;100070.41;;;10.92;63.91
30021;BME280;16861;52.294;7.760;2023-03-20T08:22:45;100069.50;;;10.93;63.73
30021;BME280;16861;52.294;7.760;2023-03-20T08:25:12;100080.81;;;10.95;64.01
30021;BME280;16861;52.294;7.760;2023-03-20T08:27:38;100086.75;;;10.99;63.87
30021;BME280;16861;52.294;7.760;2023-03-20T08:30:05;100064.56;;;11.03;64.13
30021;BME280;16861;52.294;7.760;2023-03-20T08:32:32;100078.47;;;11.07;63.96
30021;BME280;16861;52.294;7.760;2023-03-20T08:34:59;100071.22;;;11.11;63.59
30021;BME280;16861;52.294;7.760;2023-03-20T08:37:26;100070.88;;;11.17;63.35
30021;BME280;16861;52.294;7.760;2023-03-20T08:39:55;100080.44;;;11.19;63.18
30021;BME280;16861;52.294;7.760;2023-03-20T08:42:22;100076.50;;;11.27;63.39
30021;BME280;16861;52.294;7.760;2023-03-20T08:44:48;100074.56;;;11.30;63.12
30021;BME280;16861;52.294;7.760;2023-03-20T08:47:15;100077.78;;;11.36;62.90
30021;BME280;16861;52.294;7.760;2023-03-20T08:49:42;100076.69;;;11.40;63.01
30021;BME280;16861;52.294;7.760;2023-03-20T08:52:09;100081.63;;;11.46;62.88
30021;BME280;16861;52.294;7.760;2023-03-20T08:54:35;100071.66;;;11.51;62.71
30021;BME280;16861;52.294;7.760;2023-03-20T08:57:02;100080.25;;;11.55;62.58
30021;BME280;16861;52.294;7.760;2023-03-20T08:59:28;100075.66;;;11.58;62.38
30021;BME280;16861;52.294;7.760;2023-03-20T09:01:55;100071.91;;;11.63;62.68
30021;BME280;16861;52.294;7.760;2023-03-20T09:04:21;100072.50;;;11.68;62.41
30021;BME280;16861;52.294;7.760;2023-03-20T09:06:48;100077.59;;;11.71;61.13
30021;BME280;16861;52.294;7.760;2023-03-20T09:09:15;100077.53;;;11.72;60.57
30021;BME280;16861;52.294;7.760;2023-03-20T09:11:45;100074.88;;;11.72;60.00
30021;BME280;16861;52.294;7.760;2023-03-20T09:14:11;100078.34;;;11.73;60.36
30021;BME280;16861;52.294;7.760;2023-03-20T09:16:38;100082.88;;;11.71;60.00
30021;BME280;16861;52.294;7.760;2023-03-20T09:19:04;100075.81;;;11.71;60.03
30021;BME280;16861;52.294;7.760;2023-03-20T09:21:31;100087.22;;;11.72;60.27
30021;BME280;16861;52.294;7.760;2023-03-20T09:23:58;100084.56;;;11.72;59.59
30021;BME280;16861;52.294;7.760;2023-03-20T09:26:24;100087.03;;;11.75;59.50
30021;BME280;16861;52.294;7.760;2023-03-20T09:28:51;100090.50;;;11.76;59.11
30021;BME280;16861;52.294;7.760;2023-03-20T09:31:17;100094.75;;;11.78;58.92
30021;BME280;16861;52.294;7.760;2023-03-20T09:33:44;100093.84;;;11.79;58.66
30021;BME280;16861;52.294;7.760;2023-03-20T09:36:10;100096.50;;;11.79;58.08
30021;BME280;16861;52.294;7.760;2023-03-20T09:38:37;100092.91;;;11.80;58.53
30021;BME280;16861;52.294;7.760;2023-03-20T09:41:15;100095.63;;;11.79;56.15
30021;BME280;16861;52.294;7.760;2023-03-20T09:46:32;100102.34;;;11.84;57.95
30021;BME280;16861;52.294;7.760;2023-03-20T09:52:03;100084.13;;;11.96;56.52
30021;BME280;16861;52.294;7.760;2023-03-20T09:54:40;100096.00;;;12.03;57.58
30021;BME280;16861;52.294;7.760;2023-03-20T09:57:31;100085.03;;;12.11;57.72
30021;BME280;16861;52.294;7.760;2023-03-20T10:00:05;100097.88;;;12.17;57.87
30021;BME280;16861;52.294;7.760;2023-03-20T10:02:47;100084.41;;;12.22;57.08
30021;BME280;16861;52.294;7.760;2023-03-20T10:05:29;100091.97;;;12.28;55.77
30021;BME280;16861;52.294;7.760;2023-03-20T10:07:59;100092.53;;;12.33;56.61
30021;BME280;16861;52.294;7.760;2023-03-20T10:11:09;100072.38;;;12.32;55.86
30021;BME280;16861;52.294;7.760;2023-03-20T10:13:52;100078.22;;;12.37;56.17
30021;BME280;16861;52.294;7.760;2023-03-20T10:22:01;100067.81;;;12.50;55.06
30021;BME280;16861;52.294;7.760;2023-03-20T10:24:41;100066.47;;;12.58;55.69
30021;BME280;16861;52.294;7.760;2023-03-20T10:27:30;100066.38;;;12.59;54.30
30021;BME280;16861;52.294;7.760;2023-03-20T10:30:21;100067.88;;;12.63;53.84
30021;BME280;16861;52.294;7.760;2023-03-20T10:33:19;100064.31;;;12.64;50.40
30021;BME280;16861;52.294;7.760;2023-03-20T10:39:09;100070.34;;;12.67;53.11
30021;BME280;16861;52.294;7.760;2023-03-20T10:41:40;100059.31;;;12.74;55.31
30021;BME280;16861;52.294;7.760;2023-03-20T10:44:14;100061.69;;;12.79;53.87
30021;BME280;16861;52.294;7.760;2023-03-20T10:46:50;100052.63;;;12.83;54.08
30021;BME280;16861;52.294;7.760;2023-03-20T10:49:32;100054.88;;;12.89;54.43
30021;BME280;16861;52.294;7.760;2023-03-20T10:52:05;100050.53;;;12.88;53.75
30021;BME280;16861;52.294;7.760;2023-03-20T10:54:41;100048.81;;;12.87;53.60
30021;BME280;16861;52.294;7.760;2023-03-20T10:57:23;100059.22;;;12.90;54.26
30021;BME280;16861;52.294;7.760;2023-03-20T10:59:50;100057.25;;;12.94;54.29
30021;BME280;16861;52.294;7.760;2023-03-20T11:02:20;100063.53;;;12.92;53.27
30021;BME280;16861;52.294;7.760;2023-03-20T11:04:49;100055.63;;;12.92;53.77
30021;BME280;16861;52.294;7.760;2023-03-20T11:07:31;100055.06;;;12.86;52.88
30021;BME280;16861;52.294;7.760;2023-03-20T11:12:35;100053.94;;;12.76;52.71
30021;BME280;16861;52.294;7.760;2023-03-20T11:15:15;100060.44;;;12.70;52.04
30021;BME280;16861;52.294;7.760;2023-03-20T11:17:56;100050.16;;;12.66;52.15
30021;BME280;16861;52.294;7.760;2023-03-20T11:20:24;100053.81;;;12.63;53.26
30021;BME280;16861;52.294;7.760;2023-03-20T11:23:16;100052.59;;;12.54;51.23
30021;BME280;16861;52.294;7.760;2023-03-20T11:26:02;100056.38;;;12.50;51.75
30021;BME280;16861;52.294;7.760;2023-03-20T11:28:40;100052.13;;;12.47;53.10
30021;BME280;16861;52.294;7.760;2023-03-20T11:31:17;100052.41;;;12.43;53.43
30021;BME280;16861;52.294;7.760;2023-03-20T11:33:50;100049.00;;;12.41;53.13
30021;BME280;16861;52.294;7.760;2023-03-20T11:36:22;100042.78;;;12.42;54.49
30021;BME280;16861;52.294;7.760;2023-03-20T11:38:52;100040.16;;;12.42;54.36
30021;BME280;16861;52.294;7.760;2023-03-20T11:41:26;100041.00;;;12.42;53.75
30021;BME280;16861;52.294;7.760;2023-03-20T11:43:53;100042.78;;;12.42;53.66
30021;BME280;16861;52.294;7.760;2023-03-20T11:46:22;100037.69;;;12.38;53.75
30021;BME280;16861;52.294;7.760;2023-03-20T11:49:14;100031.75;;;12.35;52.83
30021;BME280;16861;52.294;7.760;2023-03-20T11:51:42;100038.53;;;12.39;54.19
30021;BME280;16861;52.294;7.760;2023-03-20T11:54:15;100035.03;;;12.38;52.67
30021;BME280;16861;52.294;7.760;2023-03-20T11:56:59;100036.00;;;12.37;53.04
30021;BME280;16861;52.294;7.760;2023-03-20T11:59:31;100046.47;;;12.39;53.23
30021;BME280;16861;52.294;7.760;2023-03-20T12:02:01;100041.19;;;12.39;53.67
30021;BME280;16861;52.294;7.760;2023-03-20T12:04:35;100039.75;;;12.33;52.09
30021;BME280;16861;52.294;7.760;2023-03-20T12:09:45;100046.25;;;12.28;53.48
30021;BME280;16861;52.294;7.760;2023-03-20T12:23:36;100030.31;;;12.15;52.66
30021;BME280;16861;52.294;7.760;2023-03-20T12:26:13;100030.38;;;12.13;52.68
30021;BME280;16861;52.294;7.760;2023-03-20T12:28:49;100028.50;;;12.15;53.67
30021;BME280;16861;52.294;7.760;2023-03-20T12:36:24;100023.63;;;12.23;54.03
30021;BME280;16861;52.294;7.760;2023-03-20T12:38:52;100033.03;;;12.28;54.49
30021;BME280;16861;52.294;7.760;2023-03-20T12:42:14;100040.97;;;12.28;53.52
30021;BME280;16861;52.294;7.760;2023-03-20T12:49:31;100039.19;;;12.28;51.92
30021;BME280;16861;52.294;7.760;2023-03-20T12:58:04;100023.81;;;12.04;53.48
30021;BME280;16861;52.294;7.760;2023-03-20T13:00:42;100022.13;;;12.03;54.51
30021;BME280;16861;52.294;7.760;2023-03-20T13:06:54;100024.19;;;11.98;53.38
30021;BME280;16861;52.294;7.760;2023-03-20T13:09:14;100025.97;;;11.97;53.31
30021;BME280;16861;52.294;7.760;2023-03-20T13:12:03;100020.97;;;11.93;53.48
30021;BME280;16861;52.294;7.760;2023-03-20T13:14:40;100023.69;;;11.91;53.87
30021;BME280;16861;52.294;7.760;2023-03-20T13:22:44;100024.91;;;11.85;54.63
30021;BME280;16861;52.294;7.760;2023-03-20T13:25:29;100026.59;;;11.86;54.78
30021;BME280;16861;52.294;7.760;2023-03-20T13:30:41;100024.75;;;11.89;54.59
30021;BME280;16861;52.294;7.760;2023-03-20T13:39:19;100021.25;;;11.88;55.11
30021;BME280;16861;52.294;7.760;2023-03-20T13:41:48;100019.47;;;11.89;55.72
30021;BME280;16861;52.294;7.760;2023-03-20T13:44:17;100008.91;;;11.89;55.77
30021;BME280;16861;52.294;7.760;2023-03-20T13:46:53;100007.97;;;11.90;54.73
30021;BME280;16861;52.294;7.760;2023-03-20T13:52:16;99989.53;;;12.04;55.97
30021;BME280;16861;52.294;7.760;2023-03-20T14:00:50;99998.94;;;12.24;54.96
30021;BME280;16861;52.294;7.760;2023-03-20T14:03:27;99994.50;;;12.25;54.79
30021;BME280;16861;52.294;7.760;2023-03-20T14:05:56;99990.16;;;12.24;55.33
30021;BME280;16861;52.294;7.760;2023-03-20T14:11:05;99990.63;;;12.16;54.73
30021;BME280;16861;52.294;7.760;2023-03-20T14:13:33;99985.28;;;12.18;55.13
30021;BME280;16861;52.294;7.760;2023-03-20T14:16:03;99981.28;;;12.10;55.14
30021;BME280;16861;52.294;7.760;2023-03-20T14:18:32;99977.88;;;12.08;55.61
30021;BME280;16861;52.294;7.760;2023-03-20T14:21:00;99980.63;;;12.07;55.71
30021;BME280;16861;52.294;7.760;2023-03-20T14:23:32;99981.81;;;12.01;54.85
30021;BME280;16861;52.294;7.760;2023-03-20T14:26:03;99977.38;;;12.02;55.20
30021;BME280;16861;52.294;7.760;2023-03-20T14:28:43;99981.97;;;11.98;54.99
30021;BME280;16861;52.294;7.760;2023-03-20T14:31:21;99977.38;;;12.02;55.91
30021;BME280;16861;52.294;7.760;2023-03-20T14:36:58;99975.75;;;11.99;55.80
30021;BME280;16861;52.294;7.760;2023-03-20T14:42:29;99979.53;;;11.95;55.03
30021;BME280;16861;52.294;7.760;2023-03-20T14:47:57;99975.91;;;11.81;55.90
30021;BME280;16861;52.294;7.760;2023-03-20T14:53:17;99969.50;;;11.71;56.39
30021;BME280;16861;52.294;7.760;2023-03-20T14:56:00;99979.63;;;11.63;56.52
30021;BME280;16861;52.294;7.760;2023-03-20T15:01:04;99974.69;;;11.56;57.13
30021;BME280;16861;52.294;7.760;2023-03-20T15:03:32;99961.72;;;11.53;57.28
30021;BME280;16861;52.294;7.760;2023-03-20T15:06:00;99967.31;;;11.47;57.28
30021;BME280;16861;52.294;7.760;2023-03-20T15:08:34;99974.81;;;11.39;57.32
30021;BME280;16861;52.294;7.760;2023-03-20T15:11:06;99967.03;;;11.37;58.17
30021;BME280;16861;52.294;7.760;2023-03-20T15:13:35;99968.13;;;11.33;57.56
30021;BME280;16861;52.294;7.760;2023-03-20T15:16:05;99969.31;;;11.27;57.93
30021;BME280;16861;52.294;7.760;2023-03-20T15:18:37;99965.31;;;11.20;58.02
30021;BME280;16861;52.294;7.760;2023-03-20T15:21:11;99962.09;;;11.15;58.22
30021;BME280;16861;52.294;7.760;2023-03-20T15:23:41;99962.19;;;11.13;58.14